Aniak, AK (99557)

11:31 PM AKDT on July 24, 2014 (GMT -0800)
Aniak (PANI) Elev 85 ft | 61.58 °N, 159.54 °W | Change Station

Current weather conditions updated 15 minutes ago

Clear
Clear
54 °F
Feels Like 54 °F
N
12
Wind Variable Wind from NNW

Tomorrow is forecast to be nearly the same temperature as today.

Today
High -- | Low -- °F
--% Chance of Precip.
Yesterday
High -- | Low -- °F
Precip. -- in
5:47 AM 11:39 PM
Waning Crescent, 2% visible
Pressure 29.96 in
Visibility 10.0 miles
Clouds Clear
Dew Point 39 °F
Humidity 58%
Rainfall 0.21 in
Snow Depth Not available.
UV 0 out of 12
Pollen Not available.
Air Quality Not available.
Flu Activity Not available.
METAR PANI 250716Z AUTO 34010KT 10SM CLR 12/04 A2996 RMK AO1

More Conditions Fewer Conditions

Pressure 29.96 in
Visibility 10.0 miles
Clouds Clear
Dew Point 39 °F
Humidity 58%
Rainfall 0.21 in
Snow Depth Not available.
UV 0 out of 12
Pollen Not available.
Air Quality Not available.
Flu Activity Not available.
METAR PANI 250716Z AUTO 34010KT 10SM CLR 12/04 A2996 RMK AO1

More Conditions Fewer Conditions

10-Day Weather Forecast

Almanac

Astronomy

Jul. 24, 2014 Rise Set
Actual Time 5:47 AM AKDT 11:39 PM AKDT
Civil Twilight 4:28 AM AKDT 12:56 AM AKDT
Nautical Twilight Sun does not rise Sun does not rise
Astronomical Twilight Sun does not rise Sun does not rise
Moon 4:16 AM AKDT (7/24) 9:47 PM AKDT (7/24)
Length of Visible Light 20h 28m
Length of Day
17h 51m
Tomorrow will be 5m 1s shorter.
Waning Crescent, 2% of the Moon is Illuminated
Jul 25
Waning Crescent
Jul 26
New
Aug 3
First Quarter
Aug 10
Full
Aug 17
Last Quarter

Community

WunderPhotos

Upload Photos

1,737,272 photos uploaded!

Nearby

Snow Depth

Station Depth Elevation
Rocky Point 2 in 500 ft
Mcneil Canyon 1 in 1320 ft
Port Graham 0 in 300 ft
Susitna Valley High 2 in 375 ft
Point Mackenzie 1 in 200 ft

Earthquake Activity

City Distance Mag. Time & Date
No recent earthquake activity has been reported nearby.
Minimum magnitude displayed is 2.5.

Coastal Water Temperatures

Place Temperature
No Stations Reporting

Nearby Weather Stations

There are no personal weather stations in this area.